sensor_id;sensor_type;location;lat;lon;timestamp;P1;durP1;ratioP1;P2;durP2;ratioP2
14933;SDS011;7560;51.364;12.384;2023-02-03T00:03:22;3.20;;;1.58;;
14933;SDS011;7560;51.364;12.384;2023-02-03T00:08:24;1.98;;;1.23;;
14933;SDS011;7560;51.364;12.384;2023-02-03T00:13:26;3.38;;;1.45;;
14933;SDS011;7560;51.364;12.384;2023-02-03T00:18:27;5.18;;;1.20;;
14933;SDS011;7560;51.364;12.384;2023-02-03T00:23:29;3.65;;;1.67;;
14933;SDS011;7560;51.364;12.384;2023-02-03T00:28:32;3.35;;;1.40;;
14933;SDS011;7560;51.364;12.384;2023-02-03T00:33:34;3.30;;;1.70;;
14933;SDS011;7560;51.364;12.384;2023-02-03T00:38:35;3.25;;;1.05;;
14933;SDS011;7560;51.364;12.384;2023-02-03T00:43:37;2.60;;;1.50;;
14933;SDS011;7560;51.364;12.384;2023-02-03T00:48:39;2.38;;;1.25;;
14933;SDS011;7560;51.364;12.384;2023-02-03T00:53:41;3.25;;;1.30;;
14933;SDS011;7560;51.364;12.384;2023-02-03T00:58:43;2.45;;;1.30;;
14933;SDS011;7560;51.364;12.384;2023-02-03T01:03:45;1.35;;;1.10;;
14933;SDS011;7560;51.364;12.384;2023-02-03T01:08:47;2.67;;;1.38;;
14933;SDS011;7560;51.364;12.384;2023-02-03T01:13:50;1.45;;;1.27;;
14933;SDS011;7560;51.364;12.384;2023-02-03T01:18:53;2.00;;;1.20;;
14933;SDS011;7560;51.364;12.384;2023-02-03T01:23:55;1.65;;;1.40;;
14933;SDS011;7560;51.364;12.384;2023-02-03T01:28:59;2.97;;;1.50;;
14933;SDS011;7560;51.364;12.384;2023-02-03T01:34:02;3.08;;;1.67;;
14933;SDS011;7560;51.364;12.384;2023-02-03T01:39:04;2.63;;;1.40;;
14933;SDS011;7560;51.364;12.384;2023-02-03T01:49:34;3.60;;;1.73;;
14933;SDS011;7560;51.364;12.384;2023-02-03T01:54:38;2.67;;;2.03;;
14933;SDS011;7560;51.364;12.384;2023-02-03T01:59:43;4.50;;;2.15;;
14933;SDS011;7560;51.364;12.384;2023-02-03T02:04:51;3.65;;;2.28;;
14933;SDS011;7560;51.364;12.384;2023-02-03T02:10:01;3.50;;;2.45;;
14933;SDS011;7560;51.364;12.384;2023-02-03T02:15:04;3.85;;;2.72;;
14933;SDS011;7560;51.364;12.384;2023-02-03T02:36:37;7.15;;;4.40;;
14933;SDS011;7560;51.364;12.384;2023-02-03T02:41:48;7.18;;;4.70;;
14933;SDS011;7560;51.364;12.384;2023-02-03T02:47:03;7.88;;;5.10;;
14933;SDS011;7560;51.364;12.384;2023-02-03T02:52:09;11.90;;;5.78;;
14933;SDS011;7560;51.364;12.384;2023-02-03T02:57:14;9.73;;;5.78;;
14933;SDS011;7560;51.364;12.384;2023-02-03T03:02:18;10.88;;;6.68;;
14933;SDS011;7560;51.364;12.384;2023-02-03T03:07:21;11.80;;;6.90;;
14933;SDS011;7560;51.364;12.384;2023-02-03T03:17:40;14.10;;;8.25;;
14933;SDS011;7560;51.364;12.384;2023-02-03T03:22:45;13.30;;;7.88;;
14933;SDS011;7560;51.364;12.384;2023-02-03T03:27:55;14.90;;;8.70;;
14933;SDS011;7560;51.364;12.384;2023-02-03T03:33:02;15.40;;;8.45;;
14933;SDS011;7560;51.364;12.384;2023-02-03T03:38:08;16.20;;;9.02;;
14933;SDS011;7560;51.364;12.384;2023-02-03T03:43:20;16.35;;;9.35;;
14933;SDS011;7560;51.364;12.384;2023-02-03T03:53:48;15.95;;;8.63;;
14933;SDS011;7560;51.364;12.384;2023-02-03T03:58:52;17.55;;;9.15;;
14933;SDS011;7560;51.364;12.384;2023-02-03T04:03:56;15.02;;;9.25;;
14933;SDS011;7560;51.364;12.384;2023-02-03T04:09:01;16.98;;;9.68;;
14933;SDS011;7560;51.364;12.384;2023-02-03T04:14:03;17.10;;;9.35;;
14933;SDS011;7560;51.364;12.384;2023-02-03T04:19:05;15.27;;;9.10;;
14933;SDS011;7560;51.364;12.384;2023-02-03T04:24:08;17.70;;;9.68;;
14933;SDS011;7560;51.364;12.384;2023-02-03T04:29:10;20.92;;;10.50;;
14933;SDS011;7560;51.364;12.384;2023-02-03T04:34:12;16.55;;;9.20;;
14933;SDS011;7560;51.364;12.384;2023-02-03T04:39:14;17.67;;;9.15;;
14933;SDS011;7560;51.364;12.384;2023-02-03T04:44:15;16.73;;;9.80;;
14933;SDS011;7560;51.364;12.384;2023-02-03T04:49:17;18.92;;;10.00;;
14933;SDS011;7560;51.364;12.384;2023-02-03T04:54:19;21.00;;;10.65;;
14933;SDS011;7560;51.364;12.384;2023-02-03T04:59:21;20.55;;;11.00;;
14933;SDS011;7560;51.364;12.384;2023-02-03T05:04:23;18.02;;;10.00;;
14933;SDS011;7560;51.364;12.384;2023-02-03T05:09:25;15.93;;;9.10;;
14933;SDS011;7560;51.364;12.384;2023-02-03T05:14:27;15.80;;;9.27;;
14933;SDS011;7560;51.364;12.384;2023-02-03T05:19:29;16.63;;;10.02;;
14933;SDS011;7560;51.364;12.384;2023-02-03T05:24:30;16.45;;;9.82;;
14933;SDS011;7560;51.364;12.384;2023-02-03T05:29:32;14.13;;;8.90;;
14933;SDS011;7560;51.364;12.384;2023-02-03T05:34:34;14.25;;;8.80;;
14933;SDS011;7560;51.364;12.384;2023-02-03T05:39:36;12.85;;;8.40;;
14933;SDS011;7560;51.364;12.384;2023-02-03T05:44:37;13.80;;;8.40;;
14933;SDS011;7560;51.364;12.384;2023-02-03T05:49:39;12.65;;;8.02;;
14933;SDS011;7560;51.364;12.384;2023-02-03T05:54:41;11.93;;;7.55;;
14933;SDS011;7560;51.364;12.384;2023-02-03T05:59:43;13.13;;;7.82;;
14933;SDS011;7560;51.364;12.384;2023-02-03T06:04:45;12.20;;;7.25;;
14933;SDS011;7560;51.364;12.384;2023-02-03T06:09:47;12.45;;;7.88;;
14933;SDS011;7560;51.364;12.384;2023-02-03T06:14:49;11.73;;;7.68;;
14933;SDS011;7560;51.364;12.384;2023-02-03T06:19:51;10.85;;;6.85;;
14933;SDS011;7560;51.364;12.384;2023-02-03T06:24:53;12.38;;;7.60;;
14933;SDS011;7560;51.364;12.384;2023-02-03T06:29:55;12.68;;;7.28;;
14933;SDS011;7560;51.364;12.384;2023-02-03T06:34:57;10.07;;;6.93;;
14933;SDS011;7560;51.364;12.384;2023-02-03T06:39:58;8.80;;;5.82;;
14933;SDS011;7560;51.364;12.384;2023-02-03T06:45:00;10.00;;;6.40;;
14933;SDS011;7560;51.364;12.384;2023-02-03T06:50:02;9.57;;;5.78;;
14933;SDS011;7560;51.364;12.384;2023-02-03T06:55:04;10.35;;;5.93;;
14933;SDS011;7560;51.364;12.384;2023-02-03T07:00:07;8.68;;;5.75;;
14933;SDS011;7560;51.364;12.384;2023-02-03T07:05:11;7.45;;;5.45;;
14933;SDS011;7560;51.364;12.384;2023-02-03T07:10:13;8.00;;;4.88;;
14933;SDS011;7560;51.364;12.384;2023-02-03T07:15:14;7.35;;;5.28;;
14933;SDS011;7560;51.364;12.384;2023-02-03T07:20:17;9.77;;;4.88;;
14933;SDS011;7560;51.364;12.384;2023-02-03T07:25:19;6.68;;;4.68;;
14933;SDS011;7560;51.364;12.384;2023-02-03T07:30:20;8.90;;;4.80;;
14933;SDS011;7560;51.364;12.384;2023-02-03T07:35:22;7.88;;;5.03;;
14933;SDS011;7560;51.364;12.384;2023-02-03T07:40:24;7.45;;;5.10;;
14933;SDS011;7560;51.364;12.384;2023-02-03T07:45:26;9.02;;;5.03;;
14933;SDS011;7560;51.364;12.384;2023-02-03T07:50:28;7.03;;;5.53;;
14933;SDS011;7560;51.364;12.384;2023-02-03T07:55:31;9.05;;;5.90;;
14933;SDS011;7560;51.364;12.384;2023-02-03T08:00:33;9.00;;;6.20;;
14933;SDS011;7560;51.364;12.384;2023-02-03T08:05:35;8.90;;;5.75;;
14933;SDS011;7560;51.364;12.384;2023-02-03T08:10:37;8.52;;;5.95;;
14933;SDS011;7560;51.364;12.384;2023-02-03T08:15:39;9.88;;;6.32;;
14933;SDS011;7560;51.364;12.384;2023-02-03T08:20:41;8.90;;;5.60;;
14933;SDS011;7560;51.364;12.384;2023-02-03T08:25:43;8.63;;;5.78;;
14933;SDS011;7560;51.364;12.384;2023-02-03T08:30:44;9.35;;;5.65;;
14933;SDS011;7560;51.364;12.384;2023-02-03T08:35:47;7.80;;;5.50;;
14933;SDS011;7560;51.364;12.384;2023-02-03T08:40:49;10.07;;;5.22;;
14933;SDS011;7560;51.364;12.384;2023-02-03T08:45:51;8.98;;;5.05;;
14933;SDS011;7560;51.364;12.384;2023-02-03T08:50:53;6.13;;;4.60;;
14933;SDS011;7560;51.364;12.384;2023-02-03T08:55:55;6.47;;;4.28;;
14933;SDS011;7560;51.364;12.384;2023-02-03T09:01:04;6.15;;;3.90;;
14933;SDS011;7560;51.364;12.384;2023-02-03T09:06:10;6.15;;;4.10;;
14933;SDS011;7560;51.364;12.384;2023-02-03T09:11:16;4.93;;;4.00;;
14933;SDS011;7560;51.364;12.384;2023-02-03T09:16:19;7.47;;;4.35;;
14933;SDS011;7560;51.364;12.384;2023-02-03T09:21:21;6.18;;;3.78;;
14933;SDS011;7560;51.364;12.384;2023-02-03T09:26:39;5.63;;;3.67;;
14933;SDS011;7560;51.364;12.384;2023-02-03T09:31:41;4.68;;;3.30;;
14933;SDS011;7560;51.364;12.384;2023-02-03T09:36:44;5.88;;;3.50;;
14933;SDS011;7560;51.364;12.384;2023-02-03T09:47:29;5.03;;;3.10;;
14933;SDS011;7560;51.364;12.384;2023-02-03T09:52:39;3.78;;;3.00;;
14933;SDS011;7560;51.364;12.384;2023-02-03T09:57:43;4.05;;;2.60;;
14933;SDS011;7560;51.364;12.384;2023-02-03T10:02:55;4.35;;;2.63;;
14933;SDS011;7560;51.364;12.384;2023-02-03T10:18:38;3.72;;;2.70;;
14933;SDS011;7560;51.364;12.384;2023-02-03T10:23:45;5.05;;;2.45;;
14933;SDS011;7560;51.364;12.384;2023-02-03T10:28:53;3.42;;;2.40;;
14933;SDS011;7560;51.364;12.384;2023-02-03T10:34:00;4.50;;;2.80;;
14933;SDS011;7560;51.364;12.384;2023-02-03T10:39:22;5.10;;;2.72;;
14933;SDS011;7560;51.364;12.384;2023-02-03T10:44:34;3.33;;;2.40;;
14933;SDS011;7560;51.364;12.384;2023-02-03T10:49:38;4.07;;;2.45;;
14933;SDS011;7560;51.364;12.384;2023-02-03T10:54:43;3.80;;;2.47;;
14933;SDS011;7560;51.364;12.384;2023-02-03T10:59:46;3.05;;;2.03;;
14933;SDS011;7560;51.364;12.384;2023-02-03T11:04:48;2.92;;;2.22;;
14933;SDS011;7560;51.364;12.384;2023-02-03T11:15:36;3.05;;;2.50;;
14933;SDS011;7560;51.364;12.384;2023-02-03T11:20:38;2.70;;;2.10;;
14933;SDS011;7560;51.364;12.384;2023-02-03T11:25:40;4.35;;;2.30;;
14933;SDS011;7560;51.364;12.384;2023-02-03T11:30:42;2.70;;;2.05;;
14933;SDS011;7560;51.364;12.384;2023-02-03T11:35:52;4.97;;;2.20;;
14933;SDS011;7560;51.364;12.384;2023-02-03T11:40:57;2.20;;;2.00;;
14933;SDS011;7560;51.364;12.384;2023-02-03T11:46:04;4.32;;;2.28;;
14933;SDS011;7560;51.364;12.384;2023-02-03T11:51:29;3.45;;;2.30;;
14933;SDS011;7560;51.364;12.384;2023-02-03T12:08:01;3.13;;;2.42;;
14933;SDS011;7560;51.364;12.384;2023-02-03T12:13:29;3.83;;;2.90;;
14933;SDS011;7560;51.364;12.384;2023-02-03T12:29:44;3.85;;;2.30;;
14933;SDS011;7560;51.364;12.384;2023-02-03T12:35:38;2.38;;;1.83;;
14933;SDS011;7560;51.364;12.384;2023-02-03T12:40:27;2.90;;;1.95;;
14933;SDS011;7560;51.364;12.384;2023-02-03T12:45:36;3.47;;;2.28;;
14933;SDS011;7560;51.364;12.384;2023-02-03T12:50:44;2.47;;;1.13;;
14933;SDS011;7560;51.364;12.384;2023-02-03T12:55:55;1.52;;;1.10;;
14933;SDS011;7560;51.364;12.384;2023-02-03T13:06:22;3.25;;;0.90;;
14933;SDS011;7560;51.364;12.384;2023-02-03T13:16:38;4.55;;;1.55;;
14933;SDS011;7560;51.364;12.384;2023-02-03T13:21:43;4.75;;;1.42;;
14933;SDS011;7560;51.364;12.384;2023-02-03T13:43:38;5.60;;;1.48;;
14933;SDS011;7560;51.364;12.384;2023-02-03T13:48:45;10.27;;;1.73;;
14933;SDS011;7560;51.364;12.384;2023-02-03T13:53:47;5.88;;;1.95;;
14933;SDS011;7560;51.364;12.384;2023-02-03T13:59:05;8.38;;;2.08;;
14933;SDS011;7560;51.364;12.384;2023-02-03T14:24:51;13.30;;;2.33;;
14933;SDS011;7560;51.364;12.384;2023-02-03T14:30:03;8.38;;;2.50;;
14933;SDS011;7560;51.364;12.384;2023-02-03T14:35:14;13.10;;;2.97;;
14933;SDS011;7560;51.364;12.384;2023-02-03T14:51:06;11.00;;;3.45;;
14933;SDS011;7560;51.364;12.384;2023-02-03T15:06:54;9.13;;;2.45;;
14933;SDS011;7560;51.364;12.384;2023-02-03T15:11:55;12.52;;;3.17;;
14933;SDS011;7560;51.364;12.384;2023-02-03T15:16:59;9.63;;;3.38;;
14933;SDS011;7560;51.364;12.384;2023-02-03T15:22:22;15.82;;;3.22;;
14933;SDS011;7560;51.364;12.384;2023-02-03T15:27:26;15.68;;;3.85;;
14933;SDS011;7560;51.364;12.384;2023-02-03T15:32:37;13.52;;;3.00;;
14933;SDS011;7560;51.364;12.384;2023-02-03T15:37:56;15.00;;;3.17;;
14933;SDS011;7560;51.364;12.384;2023-02-03T15:43:11;11.95;;;2.28;;
14933;SDS011;7560;51.364;12.384;2023-02-03T15:53:31;11.15;;;2.50;;
14933;SDS011;7560;51.364;12.384;2023-02-03T15:58:47;12.88;;;2.53;;
14933;SDS011;7560;51.364;12.384;2023-02-03T16:03:54;13.85;;;2.70;;
14933;SDS011;7560;51.364;12.384;2023-02-03T16:08:57;9.68;;;2.15;;
14933;SDS011;7560;51.364;12.384;2023-02-03T16:14:00;12.88;;;2.45;;
14933;SDS011;7560;51.364;12.384;2023-02-03T16:19:19;10.98;;;2.60;;
14933;SDS011;7560;51.364;12.384;2023-02-03T16:29:36;17.48;;;3.13;;
14933;SDS011;7560;51.364;12.384;2023-02-03T16:34:57;15.63;;;2.78;;
14933;SDS011;7560;51.364;12.384;2023-02-03T16:40:20;12.25;;;2.55;;
14933;SDS011;7560;51.364;12.384;2023-02-03T16:45:42;11.40;;;2.63;;
14933;SDS011;7560;51.364;12.384;2023-02-03T16:51:04;11.90;;;2.47;;
14933;SDS011;7560;51.364;12.384;2023-02-03T16:56:12;14.38;;;3.22;;
14933;SDS011;7560;51.364;12.384;2023-02-03T17:01:14;11.35;;;2.30;;
14933;SDS011;7560;51.364;12.384;2023-02-03T17:06:16;7.18;;;2.15;;
14933;SDS011;7560;51.364;12.384;2023-02-03T17:11:20;9.10;;;1.92;;
14933;SDS011;7560;51.364;12.384;2023-02-03T17:16:24;11.68;;;1.88;;
14933;SDS011;7560;51.364;12.384;2023-02-03T17:21:27;10.50;;;2.42;;
14933;SDS011;7560;51.364;12.384;2023-02-03T17:26:29;11.80;;;3.03;;
14933;SDS011;7560;51.364;12.384;2023-02-03T17:31:31;8.88;;;2.55;;
14933;SDS011;7560;51.364;12.384;2023-02-03T17:36:33;12.07;;;2.60;;
14933;SDS011;7560;51.364;12.384;2023-02-03T17:41:35;9.57;;;2.17;;
14933;SDS011;7560;51.364;12.384;2023-02-03T17:46:55;10.57;;;3.28;;
14933;SDS011;7560;51.364;12.384;2023-02-03T17:52:15;9.77;;;3.03;;
14933;SDS011;7560;51.364;12.384;2023-02-03T17:57:38;10.98;;;2.47;;
14933;SDS011;7560;51.364;12.384;2023-02-03T18:02:40;9.05;;;2.13;;
14933;SDS011;7560;51.364;12.384;2023-02-03T18:07:43;8.25;;;1.95;;
14933;SDS011;7560;51.364;12.384;2023-02-03T18:12:45;10.77;;;2.20;;
14933;SDS011;7560;51.364;12.384;2023-02-03T18:17:47;9.30;;;2.03;;
14933;SDS011;7560;51.364;12.384;2023-02-03T18:22:48;10.73;;;3.08;;
14933;SDS011;7560;51.364;12.384;2023-02-03T18:27:50;9.02;;;2.42;;
14933;SDS011;7560;51.364;12.384;2023-02-03T18:32:52;11.32;;;3.05;;
14933;SDS011;7560;51.364;12.384;2023-02-03T18:37:54;9.02;;;2.28;;
14933;SDS011;7560;51.364;12.384;2023-02-03T18:42:56;11.48;;;2.85;;
14933;SDS011;7560;51.364;12.384;2023-02-03T18:47:59;11.15;;;2.60;;
14933;SDS011;7560;51.364;12.384;2023-02-03T18:53:01;9.27;;;2.38;;
14933;SDS011;7560;51.364;12.384;2023-02-03T18:58:02;10.65;;;2.42;;
14933;SDS011;7560;51.364;12.384;2023-02-03T19:03:05;13.63;;;2.50;;
14933;SDS011;7560;51.364;12.384;2023-02-03T19:08:08;14.38;;;2.80;;
14933;SDS011;7560;51.364;12.384;2023-02-03T19:13:10;14.18;;;2.67;;
14933;SDS011;7560;51.364;12.384;2023-02-03T19:18:12;8.32;;;2.63;;
14933;SDS011;7560;51.364;12.384;2023-02-03T19:23:15;12.23;;;2.63;;
14933;SDS011;7560;51.364;12.384;2023-02-03T19:28:17;10.82;;;2.38;;
14933;SDS011;7560;51.364;12.384;2023-02-03T19:33:30;13.02;;;2.67;;
14933;SDS011;7560;51.364;12.384;2023-02-03T19:38:32;11.38;;;2.55;;
14933;SDS011;7560;51.364;12.384;2023-02-03T19:43:34;12.60;;;2.20;;
14933;SDS011;7560;51.364;12.384;2023-02-03T19:48:37;16.85;;;2.80;;
14933;SDS011;7560;51.364;12.384;2023-02-03T19:53:40;14.57;;;3.10;;
14933;SDS011;7560;51.364;12.384;2023-02-03T19:58:41;14.80;;;3.15;;
14933;SDS011;7560;51.364;12.384;2023-02-03T20:03:46;17.55;;;3.28;;
14933;SDS011;7560;51.364;12.384;2023-02-03T20:08:47;14.00;;;2.50;;
14933;SDS011;7560;51.364;12.384;2023-02-03T20:13:49;13.90;;;2.80;;
14933;SDS011;7560;51.364;12.384;2023-02-03T20:18:52;10.10;;;2.38;;
14933;SDS011;7560;51.364;12.384;2023-02-03T20:23:53;13.50;;;2.83;;
14933;SDS011;7560;51.364;12.384;2023-02-03T20:28:56;9.38;;;2.40;;
14933;SDS011;7560;51.364;12.384;2023-02-03T20:33:57;11.23;;;2.83;;
14933;SDS011;7560;51.364;12.384;2023-02-03T20:38:59;12.27;;;2.60;;
14933;SDS011;7560;51.364;12.384;2023-02-03T20:44:01;14.95;;;3.03;;
14933;SDS011;7560;51.364;12.384;2023-02-03T20:49:03;11.80;;;2.35;;
14933;SDS011;7560;51.364;12.384;2023-02-03T20:54:23;12.65;;;2.40;;
14933;SDS011;7560;51.364;12.384;2023-02-03T20:59:25;17.30;;;2.58;;
14933;SDS011;7560;51.364;12.384;2023-02-03T21:04:28;11.77;;;2.90;;
14933;SDS011;7560;51.364;12.384;2023-02-03T21:09:50;14.35;;;2.88;;
14933;SDS011;7560;51.364;12.384;2023-02-03T21:14:52;14.02;;;3.13;;
14933;SDS011;7560;51.364;12.384;2023-02-03T21:19:55;11.30;;;2.20;;
14933;SDS011;7560;51.364;12.384;2023-02-03T21:24:57;12.50;;;2.40;;
14933;SDS011;7560;51.364;12.384;2023-02-03T21:30:02;11.35;;;2.72;;
14933;SDS011;7560;51.364;12.384;2023-02-03T21:35:24;13.55;;;2.70;;
14933;SDS011;7560;51.364;12.384;2023-02-03T21:40:32;9.18;;;2.30;;
14933;SDS011;7560;51.364;12.384;2023-02-03T21:45:40;12.15;;;1.85;;
14933;SDS011;7560;51.364;12.384;2023-02-03T21:50:43;13.88;;;2.65;;
14933;SDS011;7560;51.364;12.384;2023-02-03T21:55:44;9.80;;;2.42;;
14933;SDS011;7560;51.364;12.384;2023-02-03T22:00:46;10.23;;;2.38;;
14933;SDS011;7560;51.364;12.384;2023-02-03T22:05:50;15.20;;;2.60;;
14933;SDS011;7560;51.364;12.384;2023-02-03T22:10:56;11.43;;;2.50;;
14933;SDS011;7560;51.364;12.384;2023-02-03T22:15:58;12.40;;;3.03;;
14933;SDS011;7560;51.364;12.384;2023-02-03T22:20:59;25.25;;;2.33;;
14933;SDS011;7560;51.364;12.384;2023-02-03T22:26:03;9.68;;;1.83;;
14933;SDS011;7560;51.364;12.384;2023-02-03T22:31:06;14.57;;;2.30;;
14933;SDS011;7560;51.364;12.384;2023-02-03T22:36:09;9.63;;;2.05;;
14933;SDS011;7560;51.364;12.384;2023-02-03T22:41:11;6.93;;;1.75;;
14933;SDS011;7560;51.364;12.384;2023-02-03T22:46:13;12.13;;;2.40;;
14933;SDS011;7560;51.364;12.384;2023-02-03T22:51:15;12.95;;;2.03;;
14933;SDS011;7560;51.364;12.384;2023-02-03T22:56:17;9.77;;;1.92;;
14933;SDS011;7560;51.364;12.384;2023-02-03T23:01:18;8.73;;;1.90;;
14933;SDS011;7560;51.364;12.384;2023-02-03T23:06:20;14.98;;;2.10;;
14933;SDS011;7560;51.364;12.384;2023-02-03T23:11:22;11.57;;;2.00;;
14933;SDS011;7560;51.364;12.384;2023-02-03T23:16:24;12.02;;;2.35;;
14933;SDS011;7560;51.364;12.384;2023-02-03T23:21:26;8.88;;;1.98;;
14933;SDS011;7560;51.364;12.384;2023-02-03T23:26:28;4.93;;;1.65;;
14933;SDS011;7560;51.364;12.384;2023-02-03T23:31:29;11.35;;;1.90;;
14933;SDS011;7560;51.364;12.384;2023-02-03T23:36:31;8.70;;;1.75;;
14933;SDS011;7560;51.364;12.384;2023-02-03T23:41:33;8.48;;;1.80;;
14933;SDS011;7560;51.364;12.384;2023-02-03T23:46:35;4.50;;;0.88;;
14933;SDS011;7560;51.364;12.384;2023-02-03T23:51:37;1.27;;;0.68;;
14933;SDS011;7560;51.364;12.384;2023-02-03T23:56:39;1.27;;;0.80;;
